sensor_id;sensor_type;location;lat;lon;timestamp;temperature;humidity
71801;HTU21D;59647;55.838;37.292;2023-04-03T00:02:09;10.71;91.34
71801;HTU21D;59647;55.838;37.292;2023-04-03T00:04:38;10.70;91.35
71801;HTU21D;59647;55.838;37.292;2023-04-03T00:07:03;10.71;91.79
71801;HTU21D;59647;55.838;37.292;2023-04-03T00:09:29;10.71;91.66
71801;HTU21D;59647;55.838;37.292;2023-04-03T00:11:55;10.71;91.87
71801;HTU21D;59647;55.838;37.292;2023-04-03T00:14:21;10.71;91.96
71801;HTU21D;59647;55.838;37.292;2023-04-03T00:16:47;10.71;92.05
71801;HTU21D;59647;55.838;37.292;2023-04-03T00:19:13;10.71;92.27
71801;HTU21D;59647;55.838;37.292;2023-04-03T00:21:39;10.71;92.47
71801;HTU21D;59647;55.838;37.292;2023-04-03T00:24:05;10.71;92.49
71801;HTU21D;59647;55.838;37.292;2023-04-03T00:26:31;10.71;92.53
71801;HTU21D;59647;55.838;37.292;2023-04-03T00:28:57;10.71;92.62
71801;HTU21D;59647;55.838;37.292;2023-04-03T00:31:23;10.71;92.70
71801;HTU21D;59647;55.838;37.292;2023-04-03T00:33:49;10.70;92.93
71801;HTU21D;59647;55.838;37.292;2023-04-03T00:36:16;10.68;92.79
71801;HTU21D;59647;55.838;37.292;2023-04-03T00:38:41;10.66;92.52
71801;HTU21D;59647;55.838;37.292;2023-04-03T00:41:07;10.64;92.47
71801;HTU21D;59647;55.838;37.292;2023-04-03T00:43:33;10.63;92.36
71801;HTU21D;59647;55.838;37.292;2023-04-03T00:45:59;10.60;92.38
71801;HTU21D;59647;55.838;37.292;2023-04-03T00:48:30;10.57;92.71
71801;HTU21D;59647;55.838;37.292;2023-04-03T00:50:57;10.56;92.79
71801;HTU21D;59647;55.838;37.292;2023-04-03T00:53:35;10.54;93.24
71801;HTU21D;59647;55.838;37.292;2023-04-03T00:56:06;10.53;93.04
71801;HTU21D;59647;55.838;37.292;2023-04-03T00:58:42;10.51;93.27
71801;HTU21D;59647;55.838;37.292;2023-04-03T01:01:12;10.51;93.15
71801;HTU21D;59647;55.838;37.292;2023-04-03T01:03:41;10.53;93.02
71801;HTU21D;59647;55.838;37.292;2023-04-03T01:06:07;10.53;93.10
71801;HTU21D;59647;55.838;37.292;2023-04-03T01:08:33;10.57;93.25
71801;HTU21D;59647;55.838;37.292;2023-04-03T01:11:00;10.58;93.24
71801;HTU21D;59647;55.838;37.292;2023-04-03T01:13:30;10.62;93.37
71801;HTU21D;59647;55.838;37.292;2023-04-03T01:15:57;10.64;93.54
71801;HTU21D;59647;55.838;37.292;2023-04-03T01:18:26;10.67;93.27
71801;HTU21D;59647;55.838;37.292;2023-04-03T01:23:36;10.65;93.34
71801;HTU21D;59647;55.838;37.292;2023-04-03T01:26:04;10.59;92.96
71801;HTU21D;59647;55.838;37.292;2023-04-03T01:28:33;10.57;93.11
71801;HTU21D;59647;55.838;37.292;2023-04-03T01:33:35;10.48;93.10
71801;HTU21D;59647;55.838;37.292;2023-04-03T01:36:02;10.44;93.11
71801;HTU21D;59647;55.838;37.292;2023-04-03T01:38:29;10.41;93.32
71801;HTU21D;59647;55.838;37.292;2023-04-03T01:40:56;10.39;93.78
71801;HTU21D;59647;55.838;37.292;2023-04-03T01:43:21;10.43;93.58
71801;HTU21D;59647;55.838;37.292;2023-04-03T01:45:48;10.46;93.45
71801;HTU21D;59647;55.838;37.292;2023-04-03T01:48:16;10.51;93.43
71801;HTU21D;59647;55.838;37.292;2023-04-03T01:50:42;10.55;93.24
71801;HTU21D;59647;55.838;37.292;2023-04-03T01:53:08;10.55;93.07
71801;HTU21D;59647;55.838;37.292;2023-04-03T01:55:34;10.57;92.83
71801;HTU21D;59647;55.838;37.292;2023-04-03T01:58:00;10.59;92.68
71801;HTU21D;59647;55.838;37.292;2023-04-03T02:00:26;10.62;92.46
71801;HTU21D;59647;55.838;37.292;2023-04-03T02:02:52;10.64;92.21
71801;HTU21D;59647;55.838;37.292;2023-04-03T02:05:18;10.66;91.95
71801;HTU21D;59647;55.838;37.292;2023-04-03T02:07:44;10.69;91.67
71801;HTU21D;59647;55.838;37.292;2023-04-03T02:10:11;10.71;91.44
71801;HTU21D;59647;55.838;37.292;2023-04-03T02:12:38;10.72;91.32
71801;HTU21D;59647;55.838;37.292;2023-04-03T02:15:04;10.72;91.26
71801;HTU21D;59647;55.838;37.292;2023-04-03T02:17:30;10.73;90.95
71801;HTU21D;59647;55.838;37.292;2023-04-03T02:19:56;10.77;90.73
71801;HTU21D;59647;55.838;37.292;2023-04-03T02:22:23;10.77;90.49
71801;HTU21D;59647;55.838;37.292;2023-04-03T02:24:50;10.77;90.33
71801;HTU21D;59647;55.838;37.292;2023-04-03T02:27:17;10.74;90.28
71801;HTU21D;59647;55.838;37.292;2023-04-03T02:29:43;10.72;90.20
71801;HTU21D;59647;55.838;37.292;2023-04-03T02:32:09;10.63;90.49
71801;HTU21D;59647;55.838;37.292;2023-04-03T02:34:35;10.54;90.77
71801;HTU21D;59647;55.838;37.292;2023-04-03T02:37:02;10.49;91.06
71801;HTU21D;59647;55.838;37.292;2023-04-03T02:39:28;10.45;91.59
71801;HTU21D;59647;55.838;37.292;2023-04-03T02:41:55;10.41;91.99
71801;HTU21D;59647;55.838;37.292;2023-04-03T02:44:23;10.37;92.14
71801;HTU21D;59647;55.838;37.292;2023-04-03T02:46:50;10.33;92.50
71801;HTU21D;59647;55.838;37.292;2023-04-03T02:49:16;10.28;92.63
71801;HTU21D;59647;55.838;37.292;2023-04-03T02:51:42;10.25;92.72
71801;HTU21D;59647;55.838;37.292;2023-04-03T02:54:08;10.20;93.11
71801;HTU21D;59647;55.838;37.292;2023-04-03T02:56:38;10.15;93.14
71801;HTU21D;59647;55.838;37.292;2023-04-03T02:59:04;10.12;93.33
71801;HTU21D;59647;55.838;37.292;2023-04-03T03:01:32;10.11;93.37
71801;HTU21D;59647;55.838;37.292;2023-04-03T03:03:59;10.08;93.59
71801;HTU21D;59647;55.838;37.292;2023-04-03T03:06:26;10.01;93.48
71801;HTU21D;59647;55.838;37.292;2023-04-03T03:08:52;9.99;93.38
71801;HTU21D;59647;55.838;37.292;2023-04-03T03:11:18;9.98;93.37
71801;HTU21D;59647;55.838;37.292;2023-04-03T03:13:44;9.98;93.24
71801;HTU21D;59647;55.838;37.292;2023-04-03T03:16:10;9.97;93.40
71801;HTU21D;59647;55.838;37.292;2023-04-03T03:18:36;9.93;93.51
71801;HTU21D;59647;55.838;37.292;2023-04-03T03:21:02;9.90;93.75
71801;HTU21D;59647;55.838;37.292;2023-04-03T03:23:30;9.90;94.01
71801;HTU21D;59647;55.838;37.292;2023-04-03T03:26:00;9.92;94.08
71801;HTU21D;59647;55.838;37.292;2023-04-03T03:28:27;9.98;93.96
71801;HTU21D;59647;55.838;37.292;2023-04-03T03:30:53;10.04;93.91
71801;HTU21D;59647;55.838;37.292;2023-04-03T03:33:20;10.10;93.78
71801;HTU21D;59647;55.838;37.292;2023-04-03T03:35:46;10.10;93.65
71801;HTU21D;59647;55.838;37.292;2023-04-03T03:38:12;10.05;93.66
71801;HTU21D;59647;55.838;37.292;2023-04-03T03:40:38;10.03;93.83
71801;HTU21D;59647;55.838;37.292;2023-04-03T03:43:04;10.05;93.92
71801;HTU21D;59647;55.838;37.292;2023-04-03T03:45:31;10.05;93.98
71801;HTU21D;59647;55.838;37.292;2023-04-03T03:47:57;10.04;94.11
71801;HTU21D;59647;55.838;37.292;2023-04-03T03:50:23;10.06;94.10
71801;HTU21D;59647;55.838;37.292;2023-04-03T03:52:50;10.08;94.28
71801;HTU21D;59647;55.838;37.292;2023-04-03T03:55:16;10.06;94.34
71801;HTU21D;59647;55.838;37.292;2023-04-03T03:57:43;10.12;94.16
71801;HTU21D;59647;55.838;37.292;2023-04-03T04:00:10;10.23;93.62
71801;HTU21D;59647;55.838;37.292;2023-04-03T04:02:44;10.25;93.34
71801;HTU21D;59647;55.838;37.292;2023-04-03T04:05:13;10.25;93.36
71801;HTU21D;59647;55.838;37.292;2023-04-03T04:07:40;10.23;93.25
71801;HTU21D;59647;55.838;37.292;2023-04-03T04:10:06;10.25;93.37
71801;HTU21D;59647;55.838;37.292;2023-04-03T04:12:32;10.28;93.05
71801;HTU21D;59647;55.838;37.292;2023-04-03T04:14:58;10.30;92.62
71801;HTU21D;59647;55.838;37.292;2023-04-03T04:17:24;10.26;92.77
71801;HTU21D;59647;55.838;37.292;2023-04-03T04:19:50;10.25;92.90
71801;HTU21D;59647;55.838;37.292;2023-04-03T04:22:16;10.25;93.01
71801;HTU21D;59647;55.838;37.292;2023-04-03T04:24:42;10.28;93.11
71801;HTU21D;59647;55.838;37.292;2023-04-03T04:27:08;10.31;93.29
71801;HTU21D;59647;55.838;37.292;2023-04-03T04:29:35;10.33;93.40
71801;HTU21D;59647;55.838;37.292;2023-04-03T04:32:04;10.34;93.47
71801;HTU21D;59647;55.838;37.292;2023-04-03T04:34:30;10.37;93.49
71801;HTU21D;59647;55.838;37.292;2023-04-03T04:36:56;10.42;93.54
71801;HTU21D;59647;55.838;37.292;2023-04-03T04:39:22;10.46;93.58
71801;HTU21D;59647;55.838;37.292;2023-04-03T04:41:48;10.52;93.42
71801;HTU21D;59647;55.838;37.292;2023-04-03T04:44:15;10.55;93.30
71801;HTU21D;59647;55.838;37.292;2023-04-03T04:46:41;10.60;93.17
71801;HTU21D;59647;55.838;37.292;2023-04-03T04:49:07;10.63;93.46
71801;HTU21D;59647;55.838;37.292;2023-04-03T04:51:33;10.72;93.13
71801;HTU21D;59647;55.838;37.292;2023-04-03T04:54:00;10.80;93.06
71801;HTU21D;59647;55.838;37.292;2023-04-03T04:56:26;10.89;93.01
71801;HTU21D;59647;55.838;37.292;2023-04-03T04:58:54;11.00;92.82
71801;HTU21D;59647;55.838;37.292;2023-04-03T05:01:21;11.09;92.78
71801;HTU21D;59647;55.838;37.292;2023-04-03T05:03:56;11.18;92.52
71801;HTU21D;59647;55.838;37.292;2023-04-03T05:06:23;11.29;92.30
71801;HTU21D;59647;55.838;37.292;2023-04-03T05:08:49;11.36;92.52
71801;HTU21D;59647;55.838;37.292;2023-04-03T05:11:16;11.41;92.61
71801;HTU21D;59647;55.838;37.292;2023-04-03T05:13:43;11.52;92.71
71801;HTU21D;59647;55.838;37.292;2023-04-03T05:16:09;11.64;92.54
71801;HTU21D;59647;55.838;37.292;2023-04-03T05:18:37;11.77;92.46
71801;HTU21D;59647;55.838;37.292;2023-04-03T05:21:08;11.92;91.66
71801;HTU21D;59647;55.838;37.292;2023-04-03T05:23:34;12.05;91.36
71801;HTU21D;59647;55.838;37.292;2023-04-03T05:26:02;12.14;90.60
71801;HTU21D;59647;55.838;37.292;2023-04-03T05:28:30;12.25;90.13
71801;HTU21D;59647;55.838;37.292;2023-04-03T05:30:57;12.33;89.79
71801;HTU21D;59647;55.838;37.292;2023-04-03T05:33:26;12.45;89.41
71801;HTU21D;59647;55.838;37.292;2023-04-03T05:35:54;12.51;88.99
71801;HTU21D;59647;55.838;37.292;2023-04-03T05:38:25;12.66;89.09
71801;HTU21D;59647;55.838;37.292;2023-04-03T05:40:52;12.78;88.45
71801;HTU21D;59647;55.838;37.292;2023-04-03T05:43:18;12.90;87.40
71801;HTU21D;59647;55.838;37.292;2023-04-03T05:45:45;12.93;86.80
71801;HTU21D;59647;55.838;37.292;2023-04-03T05:48:13;13.01;86.14
71801;HTU21D;59647;55.838;37.292;2023-04-03T05:50:39;13.05;83.58
71801;HTU21D;59647;55.838;37.292;2023-04-03T05:53:17;13.11;84.36
71801;HTU21D;59647;55.838;37.292;2023-04-03T05:55:44;13.14;84.61
71801;HTU21D;59647;55.838;37.292;2023-04-03T05:58:10;13.22;84.61
71801;HTU21D;59647;55.838;37.292;2023-04-03T06:00:37;13.32;85.09
71801;HTU21D;59647;55.838;37.292;2023-04-03T06:03:03;13.44;85.08
71801;HTU21D;59647;55.838;37.292;2023-04-03T06:05:30;13.53;84.37
71801;HTU21D;59647;55.838;37.292;2023-04-03T06:07:56;13.60;84.10
71801;HTU21D;59647;55.838;37.292;2023-04-03T06:10:24;13.64;82.34
71801;HTU21D;59647;55.838;37.292;2023-04-03T06:12:50;13.61;80.21
71801;HTU21D;59647;55.838;37.292;2023-04-03T06:15:17;13.61;79.87
71801;HTU21D;59647;55.838;37.292;2023-04-03T06:17:43;13.59;80.04
71801;HTU21D;59647;55.838;37.292;2023-04-03T06:20:10;13.64;81.49
71801;HTU21D;59647;55.838;37.292;2023-04-03T06:22:36;13.69;81.67
71801;HTU21D;59647;55.838;37.292;2023-04-03T06:25:03;13.75;81.38
71801;HTU21D;59647;55.838;37.292;2023-04-03T06:27:29;13.81;80.91
71801;HTU21D;59647;55.838;37.292;2023-04-03T06:29:55;13.82;79.56
71801;HTU21D;59647;55.838;37.292;2023-04-03T06:32:21;13.84;79.71
71801;HTU21D;59647;55.838;37.292;2023-04-03T06:34:46;13.92;81.00
71801;HTU21D;59647;55.838;37.292;2023-04-03T06:37:17;13.99;79.63
71801;HTU21D;59647;55.838;37.292;2023-04-03T06:39:44;13.95;75.93
71801;HTU21D;59647;55.838;37.292;2023-04-03T06:42:11;13.86;76.31
71801;HTU21D;59647;55.838;37.292;2023-04-03T06:44:45;13.83;77.53
71801;HTU21D;59647;55.838;37.292;2023-04-03T06:47:15;13.82;75.40
71801;HTU21D;59647;55.838;37.292;2023-04-03T06:49:42;13.83;78.01
71801;HTU21D;59647;55.838;37.292;2023-04-03T06:52:08;13.88;77.01
71801;HTU21D;59647;55.838;37.292;2023-04-03T06:54:35;13.93;78.17
71801;HTU21D;59647;55.838;37.292;2023-04-03T06:57:01;14.01;78.34
71801;HTU21D;59647;55.838;37.292;2023-04-03T06:59:27;14.10;75.25
71801;HTU21D;59647;55.838;37.292;2023-04-03T07:01:53;14.08;74.00
71801;HTU21D;59647;55.838;37.292;2023-04-03T07:04:19;14.11;75.51
71801;HTU21D;59647;55.838;37.292;2023-04-03T07:06:48;14.18;74.69
71801;HTU21D;59647;55.838;37.292;2023-04-03T07:09:15;14.22;75.14
71801;HTU21D;59647;55.838;37.292;2023-04-03T07:11:40;14.27;75.49
71801;HTU21D;59647;55.838;37.292;2023-04-03T07:14:06;14.35;74.28
71801;HTU21D;59647;55.838;37.292;2023-04-03T07:16:34;14.40;74.35
71801;HTU21D;59647;55.838;37.292;2023-04-03T07:19:01;14.39;75.21
71801;HTU21D;59647;55.838;37.292;2023-04-03T07:21:27;14.47;75.33
71801;HTU21D;59647;55.838;37.292;2023-04-03T07:23:54;14.57;76.29
71801;HTU21D;59647;55.838;37.292;2023-04-03T07:26:20;14.63;73.69
71801;HTU21D;59647;55.838;37.292;2023-04-03T07:28:48;14.71;74.65
71801;HTU21D;59647;55.838;37.292;2023-04-03T07:31:16;14.79;72.90
71801;HTU21D;59647;55.838;37.292;2023-04-03T07:33:43;14.85;72.97
71801;HTU21D;59647;55.838;37.292;2023-04-03T07:36:15;14.87;71.22
71801;HTU21D;59647;55.838;37.292;2023-04-03T07:38:41;14.92;71.96
71801;HTU21D;59647;55.838;37.292;2023-04-03T07:41:14;15.04;73.41
71801;HTU21D;59647;55.838;37.292;2023-04-03T07:43:41;15.16;72.54
71801;HTU21D;59647;55.838;37.292;2023-04-03T07:46:08;15.24;73.25
71801;HTU21D;59647;55.838;37.292;2023-04-03T07:48:34;15.34;71.36
71801;HTU21D;59647;55.838;37.292;2023-04-03T07:51:02;15.44;70.05
71801;HTU21D;59647;55.838;37.292;2023-04-03T07:53:28;15.54;71.12
71801;HTU21D;59647;55.838;37.292;2023-04-03T07:55:56;15.63;70.19
71801;HTU21D;59647;55.838;37.292;2023-04-03T07:58:22;15.67;72.99
71801;HTU21D;59647;55.838;37.292;2023-04-03T08:00:48;15.57;73.17
71801;HTU21D;59647;55.838;37.292;2023-04-03T08:03:15;15.49;73.20
71801;HTU21D;59647;55.838;37.292;2023-04-03T08:05:46;15.30;64.11
71801;HTU21D;59647;55.838;37.292;2023-04-03T08:08:15;15.23;70.48
71801;HTU21D;59647;55.838;37.292;2023-04-03T08:10:42;15.24;71.13
71801;HTU21D;59647;55.838;37.292;2023-04-03T08:13:08;15.17;65.37
71801;HTU21D;59647;55.838;37.292;2023-04-03T08:15:35;15.27;62.79
71801;HTU21D;59647;55.838;37.292;2023-04-03T08:18:02;15.17;62.87
71801;HTU21D;59647;55.838;37.292;2023-04-03T08:20:28;15.25;68.68
71801;HTU21D;59647;55.838;37.292;2023-04-03T08:22:54;15.46;68.41
71801;HTU21D;59647;55.838;37.292;2023-04-03T08:25:20;15.73;67.43
71801;HTU21D;59647;55.838;37.292;2023-04-03T08:27:46;15.99;67.96
71801;HTU21D;59647;55.838;37.292;2023-04-03T08:30:12;16.14;63.48
71801;HTU21D;59647;55.838;37.292;2023-04-03T08:32:38;16.21;66.81
71801;HTU21D;59647;55.838;37.292;2023-04-03T08:35:07;16.02;69.24
71801;HTU21D;59647;55.838;37.292;2023-04-03T08:37:35;15.77;68.55
71801;HTU21D;59647;55.838;37.292;2023-04-03T08:40:04;15.51;67.61
71801;HTU21D;59647;55.838;37.292;2023-04-03T08:45:41;15.29;63.19
71801;HTU21D;59647;55.838;37.292;2023-04-03T08:48:34;15.32;60.09
71801;HTU21D;59647;55.838;37.292;2023-04-03T08:51:04;15.37;63.92
71801;HTU21D;59647;55.838;37.292;2023-04-03T08:53:40;15.38;61.09
71801;HTU21D;59647;55.838;37.292;2023-04-03T08:56:11;15.32;56.09
71801;HTU21D;59647;55.838;37.292;2023-04-03T08:59:00;15.41;63.06
71801;HTU21D;59647;55.838;37.292;2023-04-03T09:01:39;15.55;64.05
71801;HTU21D;59647;55.838;37.292;2023-04-03T09:04:16;15.74;63.38
71801;HTU21D;59647;55.838;37.292;2023-04-03T09:06:52;15.95;62.79
71801;HTU21D;59647;55.838;37.292;2023-04-03T09:09:41;16.24;66.37
71801;HTU21D;59647;55.838;37.292;2023-04-03T09:12:24;16.44;62.66
71801;HTU21D;59647;55.838;37.292;2023-04-03T09:14:57;16.50;53.30
71801;HTU21D;59647;55.838;37.292;2023-04-03T09:22:39;16.67;56.87
71801;HTU21D;59647;55.838;37.292;2023-04-03T09:25:15;16.70;60.86
71801;HTU21D;59647;55.838;37.292;2023-04-03T09:27:41;16.75;62.84
71801;HTU21D;59647;55.838;37.292;2023-04-03T09:30:33;16.88;61.02
71801;HTU21D;59647;55.838;37.292;2023-04-03T09:32:59;16.93;62.57
71801;HTU21D;59647;55.838;37.292;2023-04-03T09:35:36;16.94;61.74
71801;HTU21D;59647;55.838;37.292;2023-04-03T09:43:25;17.02;62.19
71801;HTU21D;59647;55.838;37.292;2023-04-03T09:45:52;17.15;64.55
71801;HTU21D;59647;55.838;37.292;2023-04-03T09:48:21;17.22;59.73
71801;HTU21D;59647;55.838;37.292;2023-04-03T09:56:18;17.29;59.16
71801;HTU21D;59647;55.838;37.292;2023-04-03T10:01:30;17.41;61.20
71801;HTU21D;59647;55.838;37.292;2023-04-03T10:04:15;17.45;58.60
71801;HTU21D;59647;55.838;37.292;2023-04-03T10:06:43;17.48;57.29
71801;HTU21D;59647;55.838;37.292;2023-04-03T10:09:30;17.49;56.03
71801;HTU21D;59647;55.838;37.292;2023-04-03T10:12:10;17.52;56.95
71801;HTU21D;59647;55.838;37.292;2023-04-03T10:19:58;17.15;56.34
71801;HTU21D;59647;55.838;37.292;2023-04-03T10:23:01;17.24;57.85
71801;HTU21D;59647;55.838;37.292;2023-04-03T10:34:06;17.34;56.45
71801;HTU21D;59647;55.838;37.292;2023-04-03T10:36:48;17.23;57.54
71801;HTU21D;59647;55.838;37.292;2023-04-03T10:42:32;16.96;55.37
71801;HTU21D;59647;55.838;37.292;2023-04-03T10:48:06;16.79;46.96
71801;HTU21D;59647;55.838;37.292;2023-04-03T11:01:48;16.81;57.90
71801;HTU21D;59647;55.838;37.292;2023-04-03T11:04:16;16.95;58.38
71801;HTU21D;59647;55.838;37.292;2023-04-03T11:06:50;17.04;57.47
71801;HTU21D;59647;55.838;37.292;2023-04-03T11:09:47;16.72;51.05
71801;HTU21D;59647;55.838;37.292;2023-04-03T11:12:29;16.64;59.07
71801;HTU21D;59647;55.838;37.292;2023-04-03T11:14:57;16.54;57.58
71801;HTU21D;59647;55.838;37.292;2023-04-03T11:17:44;16.49;54.98
71801;HTU21D;59647;55.838;37.292;2023-04-03T11:20:23;16.47;49.71
71801;HTU21D;59647;55.838;37.292;2023-04-03T11:23:24;16.47;55.78
71801;HTU21D;59647;55.838;37.292;2023-04-03T11:25:57;16.40;57.98
71801;HTU21D;59647;55.838;37.292;2023-04-03T11:28:25;16.35;52.78
71801;HTU21D;59647;55.838;37.292;2023-04-03T11:36:28;16.49;52.25
71801;HTU21D;59647;55.838;37.292;2023-04-03T11:38:58;16.70;53.42
71801;HTU21D;59647;55.838;37.292;2023-04-03T11:41:30;16.90;53.62
71801;HTU21D;59647;55.838;37.292;2023-04-03T11:44:06;17.03;48.95
71801;HTU21D;59647;55.838;37.292;2023-04-03T11:46:59;17.20;48.64
71801;HTU21D;59647;55.838;37.292;2023-04-03T11:50:00;17.35;47.50
71801;HTU21D;59647;55.838;37.292;2023-04-03T11:52:59;17.50;47.80
71801;HTU21D;59647;55.838;37.292;2023-04-03T12:14:02;17.92;47.73
71801;HTU21D;59647;55.838;37.292;2023-04-03T12:16:29;17.92;52.39
71801;HTU21D;59647;55.838;37.292;2023-04-03T12:19:01;17.85;47.97
71801;HTU21D;59647;55.838;37.292;2023-04-03T12:48:27;16.96;49.54
71801;HTU21D;59647;55.838;37.292;2023-04-03T12:50:55;16.99;51.57
71801;HTU21D;59647;55.838;37.292;2023-04-03T12:53:27;16.98;51.26
71801;HTU21D;59647;55.838;37.292;2023-04-03T12:55:59;16.95;51.41
71801;HTU21D;59647;55.838;37.292;2023-04-03T12:58:43;17.00;53.02
71801;HTU21D;59647;55.838;37.292;2023-04-03T13:01:17;17.07;51.97
71801;HTU21D;59647;55.838;37.292;2023-04-03T13:03:47;17.13;53.17
71801;HTU21D;59647;55.838;37.292;2023-04-03T13:06:18;17.19;53.75
71801;HTU21D;59647;55.838;37.292;2023-04-03T13:08:54;17.23;52.09
71801;HTU21D;59647;55.838;37.292;2023-04-03T13:11:25;17.21;50.94
71801;HTU21D;59647;55.838;37.292;2023-04-03T13:14:01;17.13;50.88
71801;HTU21D;59647;55.838;37.292;2023-04-03T13:16:29;17.09;53.10
71801;HTU21D;59647;55.838;37.292;2023-04-03T13:18:55;17.05;49.39
71801;HTU21D;59647;55.838;37.292;2023-04-03T13:21:34;17.07;51.45
71801;HTU21D;59647;55.838;37.292;2023-04-03T13:24:02;17.03;52.27
71801;HTU21D;59647;55.838;37.292;2023-04-03T13:26:31;16.98;53.37
71801;HTU21D;59647;55.838;37.292;2023-04-03T13:29:04;16.85;53.10
71801;HTU21D;59647;55.838;37.292;2023-04-03T13:31:36;16.79;52.14
71801;HTU21D;59647;55.838;37.292;2023-04-03T13:34:19;16.74;52.52
71801;HTU21D;59647;55.838;37.292;2023-04-03T13:36:59;16.57;52.40
71801;HTU21D;59647;55.838;37.292;2023-04-03T13:39:56;16.41;51.91
71801;HTU21D;59647;55.838;37.292;2023-04-03T13:42:25;16.26;53.28
71801;HTU21D;59647;55.838;37.292;2023-04-03T13:47:45;16.12;55.08
71801;HTU21D;59647;55.838;37.292;2023-04-03T13:52:54;16.02;55.61
71801;HTU21D;59647;55.838;37.292;2023-04-03T13:55:24;16.00;56.37
71801;HTU21D;59647;55.838;37.292;2023-04-03T13:57:55;15.93;56.03
71801;HTU21D;59647;55.838;37.292;2023-04-03T14:02:56;15.83;56.74
71801;HTU21D;59647;55.838;37.292;2023-04-03T14:05:23;15.83;57.15
71801;HTU21D;59647;55.838;37.292;2023-04-03T14:07:51;15.78;56.89
71801;HTU21D;59647;55.838;37.292;2023-04-03T14:10:17;15.76;56.71
71801;HTU21D;59647;55.838;37.292;2023-04-03T14:12:43;15.73;56.02
71801;HTU21D;59647;55.838;37.292;2023-04-03T14:15:22;15.72;56.39
71801;HTU21D;59647;55.838;37.292;2023-04-03T14:17:50;15.70;57.19
71801;HTU21D;59647;55.838;37.292;2023-04-03T14:20:20;15.69;56.96
71801;HTU21D;59647;55.838;37.292;2023-04-03T14:22:47;15.68;56.86
71801;HTU21D;59647;55.838;37.292;2023-04-03T14:25:15;15.65;57.28
71801;HTU21D;59647;55.838;37.292;2023-04-03T14:27:44;15.60;57.17
71801;HTU21D;59647;55.838;37.292;2023-04-03T14:30:26;15.60;56.77
71801;HTU21D;59647;55.838;37.292;2023-04-03T14:32:52;15.58;56.45
71801;HTU21D;59647;55.838;37.292;2023-04-03T14:35:18;15.56;57.62
71801;HTU21D;59647;55.838;37.292;2023-04-03T14:37:46;15.59;57.87
71801;HTU21D;59647;55.838;37.292;2023-04-03T14:40:18;15.59;57.85
71801;HTU21D;59647;55.838;37.292;2023-04-03T14:42:45;15.57;58.13
71801;HTU21D;59647;55.838;37.292;2023-04-03T14:45:13;15.51;56.03
71801;HTU21D;59647;55.838;37.292;2023-04-03T14:47:45;15.43;57.39
71801;HTU21D;59647;55.838;37.292;2023-04-03T14:50:15;15.36;58.03
71801;HTU21D;59647;55.838;37.292;2023-04-03T14:52:43;15.31;58.80
71801;HTU21D;59647;55.838;37.292;2023-04-03T14:55:12;15.29;59.17
71801;HTU21D;59647;55.838;37.292;2023-04-03T14:57:40;15.23;59.35
71801;HTU21D;59647;55.838;37.292;2023-04-03T15:00:11;15.19;59.50
71801;HTU21D;59647;55.838;37.292;2023-04-03T15:02:38;15.14;59.64
71801;HTU21D;59647;55.838;37.292;2023-04-03T15:05:07;15.12;59.63
71801;HTU21D;59647;55.838;37.292;2023-04-03T15:07:36;15.04;59.02
71801;HTU21D;59647;55.838;37.292;2023-04-03T15:12:41;14.97;60.01
71801;HTU21D;59647;55.838;37.292;2023-04-03T15:15:08;14.96;60.27
71801;HTU21D;59647;55.838;37.292;2023-04-03T15:17:35;14.93;60.12
71801;HTU21D;59647;55.838;37.292;2023-04-03T15:20:03;14.87;60.38
71801;HTU21D;59647;55.838;37.292;2023-04-03T15:22:30;14.80;60.83
71801;HTU21D;59647;55.838;37.292;2023-04-03T15:24:55;14.74;61.09
71801;HTU21D;59647;55.838;37.292;2023-04-03T15:27:21;14.70;61.23
71801;HTU21D;59647;55.838;37.292;2023-04-03T15:29:47;14.68;61.51
71801;HTU21D;59647;55.838;37.292;2023-04-03T15:32:13;14.64;61.63
71801;HTU21D;59647;55.838;37.292;2023-04-03T15:34:39;14.59;61.71
71801;HTU21D;59647;55.838;37.292;2023-04-03T15:37:05;14.47;61.98
71801;HTU21D;59647;55.838;37.292;2023-04-03T15:39:31;14.39;62.28
71801;HTU21D;59647;55.838;37.292;2023-04-03T15:41:58;14.36;62.24
71801;HTU21D;59647;55.838;37.292;2023-04-03T15:44:35;14.29;62.72
71801;HTU21D;59647;55.838;37.292;2023-04-03T15:47:02;14.24;62.89
71801;HTU21D;59647;55.838;37.292;2023-04-03T15:49:28;14.20;62.81
71801;HTU21D;59647;55.838;37.292;2023-04-03T15:51:54;14.08;64.53
71801;HTU21D;59647;55.838;37.292;2023-04-03T15:54:20;14.05;63.44
71801;HTU21D;59647;55.838;37.292;2023-04-03T15:56:45;13.94;64.23
71801;HTU21D;59647;55.838;37.292;2023-04-03T15:59:12;13.89;64.10
71801;HTU21D;59647;55.838;37.292;2023-04-03T16:01:41;13.82;64.50
71801;HTU21D;59647;55.838;37.292;2023-04-03T16:04:08;13.71;65.16
71801;HTU21D;59647;55.838;37.292;2023-04-03T16:06:35;13.63;67.58
71801;HTU21D;59647;55.838;37.292;2023-04-03T16:09:01;13.59;65.90
71801;HTU21D;59647;55.838;37.292;2023-04-03T16:11:27;13.51;66.29
71801;HTU21D;59647;55.838;37.292;2023-04-03T16:13:55;13.40;68.62
71801;HTU21D;59647;55.838;37.292;2023-04-03T16:16:22;13.35;67.52
71801;HTU21D;59647;55.838;37.292;2023-04-03T16:18:48;13.27;68.86
71801;HTU21D;59647;55.838;37.292;2023-04-03T16:21:15;13.23;68.52
71801;HTU21D;59647;55.838;37.292;2023-04-03T16:23:42;13.18;70.23
71801;HTU21D;59647;55.838;37.292;2023-04-03T16:26:08;13.16;69.71
71801;HTU21D;59647;55.838;37.292;2023-04-03T16:28:34;13.15;70.17
71801;HTU21D;59647;55.838;37.292;2023-04-03T16:31:01;13.09;69.83
71801;HTU21D;59647;55.838;37.292;2023-04-03T16:33:28;13.03;70.05
71801;HTU21D;59647;55.838;37.292;2023-04-03T16:35:54;12.96;70.81
71801;HTU21D;59647;55.838;37.292;2023-04-03T16:38:20;12.85;73.04
71801;HTU21D;59647;55.838;37.292;2023-04-03T16:40:48;12.78;73.32
71801;HTU21D;59647;55.838;37.292;2023-04-03T16:43:15;12.74;72.09
71801;HTU21D;59647;55.838;37.292;2023-04-03T16:45:41;12.69;74.06
71801;HTU21D;59647;55.838;37.292;2023-04-03T16:48:07;12.63;73.34
71801;HTU21D;59647;55.838;37.292;2023-04-03T16:50:32;12.59;73.91
71801;HTU21D;59647;55.838;37.292;2023-04-03T16:52:58;12.55;73.77
71801;HTU21D;59647;55.838;37.292;2023-04-03T16:55:24;12.50;74.09
71801;HTU21D;59647;55.838;37.292;2023-04-03T16:57:50;12.44;74.25
71801;HTU21D;59647;55.838;37.292;2023-04-03T17:00:16;12.31;82.10
71801;HTU21D;59647;55.838;37.292;2023-04-03T17:02:42;12.22;77.85
71801;HTU21D;59647;55.838;37.292;2023-04-03T17:05:08;12.21;76.53
71801;HTU21D;59647;55.838;37.292;2023-04-03T17:07:34;12.11;77.47
71801;HTU21D;59647;55.838;37.292;2023-04-03T17:10:00;11.98;80.06
71801;HTU21D;59647;55.838;37.292;2023-04-03T17:12:26;11.93;79.51
71801;HTU21D;59647;55.838;37.292;2023-04-03T17:14:52;11.91;78.74